createdAt,value
2018-07-15T00:01:07.607Z,14.77
2018-07-15T00:04:11.246Z,14.68
2018-07-15T00:07:14.864Z,14.75
2018-07-15T00:10:18.460Z,14.68
2018-07-15T00:13:22.042Z,14.62
2018-07-15T00:16:25.594Z,14.56
2018-07-15T00:19:29.217Z,14.49
2018-07-15T00:22:32.809Z,14.34
2018-07-15T00:25:36.781Z,14.32
2018-07-15T00:28:40.333Z,14.42
2018-07-15T00:31:43.975Z,14.39
2018-07-15T00:34:47.664Z,14.32
2018-07-15T00:37:51.454Z,14.26
2018-07-15T00:40:55.142Z,14.21
2018-07-15T00:43:58.763Z,14.08
2018-07-15T00:47:02.336Z,14.00
2018-07-15T00:50:06.131Z,13.94
2018-07-15T00:53:09.805Z,13.86
2018-07-15T00:56:13.434Z,13.81
2018-07-15T00:59:17.123Z,13.76
2018-07-15T01:02:20.763Z,13.67
2018-07-15T01:05:24.439Z,13.61
2018-07-15T01:08:28.236Z,13.59
2018-07-15T01:11:31.803Z,13.65
2018-07-15T01:14:35.325Z,13.65
2018-07-15T01:17:39.200Z,13.50
2018-07-15T01:20:42.867Z,13.44
2018-07-15T01:23:46.501Z,13.34
2018-07-15T01:26:50.390Z,13.22
2018-07-15T01:29:54.009Z,13.15
2018-07-15T01:32:57.701Z,13.10
2018-07-15T01:36:01.305Z,13.01
2018-07-15T01:39:05.648Z,12.96
2018-07-15T01:42:09.253Z,12.88
2018-07-15T01:45:12.821Z,12.90
2018-07-15T01:48:16.344Z,12.85
2018-07-15T01:51:19.940Z,12.81
2018-07-15T01:54:23.454Z,12.84
2018-07-15T01:57:27.046Z,12.79
2018-07-15T02:00:30.561Z,12.76
2018-07-15T02:03:34.219Z,12.72
2018-07-15T02:06:37.839Z,12.76
2018-07-15T02:09:41.364Z,12.76
2018-07-15T02:12:45.940Z,12.73
2018-07-15T02:15:49.695Z,12.73
2018-07-15T02:18:53.288Z,12.72
2018-07-15T02:21:56.819Z,12.70
2018-07-15T02:25:00.501Z,12.69
2018-07-15T02:28:04.189Z,12.69
2018-07-15T02:31:07.799Z,12.67
2018-07-15T02:34:11.564Z,12.65
2018-07-15T02:37:15.172Z,12.62
2018-07-15T02:40:18.739Z,12.71
2018-07-15T02:43:22.244Z,12.65
2018-07-15T02:46:25.809Z,12.74
2018-07-15T02:49:29.398Z,12.73
2018-07-15T02:52:32.957Z,12.79
2018-07-15T02:55:36.532Z,12.88
2018-07-15T02:58:40.066Z,12.90
2018-07-15T03:01:43.819Z,12.82
2018-07-15T03:04:47.375Z,12.79
2018-07-15T03:07:51.130Z,12.82
2018-07-15T03:10:54.680Z,12.77
2018-07-15T03:13:58.316Z,12.76
2018-07-15T03:17:01.932Z,12.74
2018-07-15T03:20:05.569Z,12.84
2018-07-15T03:23:09.380Z,12.91
2018-07-15T03:26:12.944Z,12.88
2018-07-15T03:29:16.630Z,12.94
2018-07-15T03:32:20.166Z,13.10
2018-07-15T03:35:23.801Z,13.34
2018-07-15T03:38:27.375Z,13.62
2018-07-15T03:41:30.920Z,13.99
2018-07-15T03:44:34.560Z,14.38
2018-07-15T03:47:38.104Z,14.73
2018-07-15T03:50:41.735Z,15.16
2018-07-15T03:53:45.377Z,15.57
2018-07-15T03:56:49.942Z,15.22
2018-07-15T03:59:53.667Z,14.77
2018-07-15T04:02:57.260Z,14.71
2018-07-15T04:06:00.876Z,15.25
2018-07-15T04:09:05.418Z,15.56
2018-07-15T04:12:09.146Z,15.47
2018-07-15T04:15:12.751Z,16.35
2018-07-15T04:18:16.316Z,16.86
2018-07-15T04:21:19.917Z,17.43
2018-07-15T04:24:23.666Z,17.46
2018-07-15T04:27:27.277Z,18.53
2018-07-15T04:30:30.927Z,19.51
2018-07-15T04:33:34.620Z,20.09
2018-07-15T04:36:38.250Z,20.55
2018-07-15T04:39:41.937Z,21.02
2018-07-15T04:42:45.717Z,20.64
2018-07-15T04:45:49.211Z,21.00
2018-07-15T04:48:52.789Z,21.60
2018-07-15T04:51:56.480Z,22.54
2018-07-15T04:55:00.197Z,22.95
2018-07-15T04:58:03.806Z,22.14
2018-07-15T05:01:07.556Z,22.72
2018-07-15T05:04:12.461Z,23.98
2018-07-15T05:07:16.047Z,22.94
2018-07-15T05:10:19.733Z,22.66
2018-07-15T05:13:23.305Z,23.24
2018-07-15T05:16:26.891Z,24.13
2018-07-15T05:19:30.597Z,24.79
2018-07-15T05:22:34.281Z,24.02
2018-07-15T05:25:37.991Z,24.32
2018-07-15T05:28:41.669Z,24.40
2018-07-15T05:31:45.331Z,24.14
2018-07-15T05:34:49.041Z,24.31
2018-07-15T05:37:52.677Z,23.94
2018-07-15T05:40:56.343Z,24.21
2018-07-15T05:44:00.068Z,22.77
2018-07-15T05:47:03.681Z,22.58
2018-07-15T05:50:07.383Z,22.54
2018-07-15T05:53:10.967Z,22.43
2018-07-15T05:56:14.507Z,22.93
2018-07-15T05:59:18.097Z,23.37
2018-07-15T06:02:21.678Z,24.23
2018-07-15T06:05:25.272Z,24.41
2018-07-15T06:08:28.898Z,24.78
2018-07-15T06:11:32.591Z,24.16
2018-07-15T06:14:36.161Z,23.98
2018-07-15T06:17:39.800Z,24.17
2018-07-15T06:20:43.531Z,23.67
2018-07-15T06:23:47.288Z,24.48
2018-07-15T06:26:50.914Z,23.81
2018-07-15T06:29:54.602Z,24.23
2018-07-15T06:32:58.317Z,24.46
2018-07-15T06:36:01.973Z,24.86
2018-07-15T06:39:07.262Z,24.58
2018-07-15T06:42:11.952Z,25.00
2018-07-15T06:45:15.667Z,25.20
2018-07-15T06:48:19.389Z,25.42
2018-07-15T06:51:23.108Z,24.94
2018-07-15T06:54:26.678Z,25.14
2018-07-15T06:57:30.357Z,25.01
2018-07-15T07:00:34.203Z,25.49
2018-07-15T07:03:37.811Z,23.74
2018-07-15T07:06:41.372Z,23.35
2018-07-15T07:09:45.085Z,21.94
2018-07-15T07:12:48.823Z,21.15
2018-07-15T07:15:52.504Z,21.01
2018-07-15T07:18:56.044Z,20.35
2018-07-15T07:21:59.758Z,20.69
2018-07-15T07:25:03.674Z,19.96
2018-07-15T07:28:07.285Z,19.56
2018-07-15T07:31:10.953Z,19.50
2018-07-15T07:34:14.530Z,19.58
2018-07-15T07:37:18.184Z,19.82
2018-07-15T07:40:21.783Z,20.05
2018-07-15T07:43:25.458Z,19.99
2018-07-15T07:46:29.252Z,19.83
2018-07-15T07:49:32.862Z,19.83
2018-07-15T07:52:36.490Z,20.02
2018-07-15T07:55:40.065Z,20.30
2018-07-15T07:58:43.618Z,20.21
2018-07-15T08:01:47.323Z,20.36
2018-07-15T08:04:50.932Z,20.57
2018-07-15T08:07:54.648Z,20.22
2018-07-15T08:10:58.285Z,20.21
2018-07-15T08:14:01.908Z,20.26
2018-07-15T08:17:05.588Z,20.06
2018-07-15T08:20:09.193Z,20.36
2018-07-15T08:23:13.328Z,20.45
2018-07-15T08:26:17.118Z,20.27
2018-07-15T08:29:20.827Z,19.99
2018-07-15T08:32:24.464Z,20.34
2018-07-15T08:35:28.123Z,20.42
2018-07-15T08:38:31.740Z,20.49
2018-07-15T08:41:35.834Z,20.47
2018-07-15T08:44:39.528Z,19.87
2018-07-15T08:47:43.198Z,20.10
2018-07-15T08:50:46.749Z,20.29
2018-07-15T08:53:50.400Z,20.37
2018-07-15T08:56:54.133Z,20.53
2018-07-15T08:59:57.714Z,20.79
2018-07-15T09:03:01.501Z,20.92
2018-07-15T09:06:05.299Z,20.87
2018-07-15T09:09:08.938Z,20.63
2018-07-15T09:12:12.684Z,20.87
2018-07-15T09:15:16.280Z,21.05
2018-07-15T09:18:19.946Z,21.13
2018-07-15T09:21:23.563Z,20.96
2018-07-15T09:24:27.423Z,21.03
2018-07-15T09:27:30.927Z,21.24
2018-07-15T09:30:34.663Z,21.68
2018-07-15T09:33:38.274Z,21.36
2018-07-15T09:36:41.976Z,21.35
2018-07-15T09:39:45.598Z,21.43
2018-07-15T09:42:49.220Z,21.19
2018-07-15T09:45:52.799Z,21.29
2018-07-15T09:48:56.624Z,21.22
2018-07-15T09:52:00.245Z,21.39
2018-07-15T09:55:03.851Z,21.37
2018-07-15T09:58:07.526Z,21.72
2018-07-15T10:01:11.075Z,21.97
2018-07-15T10:04:14.685Z,21.70
2018-07-15T10:07:18.264Z,21.67
2018-07-15T10:10:21.963Z,21.55
2018-07-15T10:13:25.557Z,21.65
2018-07-15T10:16:29.213Z,21.69
2018-07-15T10:19:32.823Z,21.70
2018-07-15T10:22:36.489Z,21.92
2018-07-15T10:25:40.226Z,22.12
2018-07-15T10:28:43.884Z,22.35
2018-07-15T10:31:47.480Z,22.52
2018-07-15T10:34:51.248Z,22.25
2018-07-15T10:37:54.901Z,22.20
2018-07-15T10:40:58.521Z,22.03
2018-07-15T10:44:02.199Z,21.99
2018-07-15T10:47:05.885Z,22.32
2018-07-15T10:50:09.702Z,22.27
2018-07-15T10:53:13.326Z,22.53
2018-07-15T10:56:17.033Z,22.60
2018-07-15T10:59:20.690Z,22.63
2018-07-15T11:02:24.291Z,22.94
2018-07-15T11:05:28.015Z,22.68
2018-07-15T11:08:31.698Z,22.72
2018-07-15T11:11:35.344Z,22.71
2018-07-15T11:14:39.260Z,23.12
2018-07-15T11:17:42.968Z,23.10
2018-07-15T11:20:46.683Z,22.99
2018-07-15T11:23:50.543Z,22.91
2018-07-15T11:26:54.153Z,22.79
2018-07-15T11:29:57.806Z,23.02
2018-07-15T11:33:01.464Z,23.12
2018-07-15T11:36:05.370Z,22.91
2018-07-15T11:39:09.815Z,23.17
2018-07-15T11:42:13.404Z,23.32
2018-07-15T11:45:17.162Z,23.21
2018-07-15T11:48:20.858Z,23.03
2018-07-15T11:51:24.577Z,23.23
2018-07-15T11:54:28.310Z,23.53
2018-07-15T11:57:31.907Z,23.50
2018-07-15T12:00:35.590Z,23.65
2018-07-15T12:03:39.316Z,23.28
2018-07-15T12:06:43.069Z,23.41
2018-07-15T12:09:46.771Z,23.61
2018-07-15T12:12:50.506Z,23.55
2018-07-15T12:15:54.311Z,23.73
2018-07-15T12:18:58.189Z,23.87
2018-07-15T12:22:01.809Z,24.06
2018-07-15T12:25:05.596Z,23.73
2018-07-15T12:28:09.211Z,23.98
2018-07-15T12:31:12.966Z,23.80
2018-07-15T12:34:16.555Z,23.92
2018-07-15T12:37:20.210Z,23.98
2018-07-15T12:40:23.828Z,24.09
2018-07-15T12:43:27.591Z,24.00
2018-07-15T12:46:31.286Z,23.86
2018-07-15T12:49:35.070Z,24.26
2018-07-15T12:52:38.796Z,24.36
2018-07-15T12:55:42.373Z,24.43
2018-07-15T12:58:46.136Z,24.54
2018-07-15T13:01:49.997Z,24.44
2018-07-15T13:04:53.770Z,24.09
2018-07-15T13:07:57.476Z,24.04
2018-07-15T13:11:01.412Z,24.33
2018-07-15T13:14:05.133Z,24.44
2018-07-15T13:17:08.986Z,24.63
2018-07-15T13:20:12.778Z,24.70
2018-07-15T13:23:16.672Z,24.71
2018-07-15T13:26:20.645Z,24.91
2018-07-15T13:29:24.299Z,24.80
2018-07-15T13:32:28.016Z,24.70
2018-07-15T13:35:31.933Z,24.36
2018-07-15T13:38:35.732Z,24.38
2018-07-15T13:41:39.427Z,24.71
2018-07-15T13:44:43.049Z,24.69
2018-07-15T13:47:47.949Z,24.60
2018-07-15T13:50:51.648Z,24.57
2018-07-15T13:53:55.329Z,24.61
2018-07-15T13:56:59.005Z,24.71
2018-07-15T14:00:02.722Z,25.18
2018-07-15T14:03:06.454Z,25.27
2018-07-15T14:06:10.254Z,25.15
2018-07-15T14:09:13.904Z,24.71
2018-07-15T14:12:17.604Z,24.88
2018-07-15T14:15:21.423Z,25.04
2018-07-15T14:18:25.121Z,25.43
2018-07-15T14:21:28.729Z,25.44
2018-07-15T14:24:32.596Z,25.14
2018-07-15T14:27:36.277Z,24.95
2018-07-15T14:30:39.944Z,24.64
2018-07-15T14:33:43.553Z,25.03
2018-07-15T14:36:47.287Z,25.28
2018-07-15T14:39:50.937Z,25.16
2018-07-15T14:42:54.712Z,25.17
2018-07-15T14:45:58.346Z,25.42
2018-07-15T14:49:02.107Z,25.46
2018-07-15T14:52:05.918Z,25.16
2018-07-15T14:55:09.531Z,24.97
2018-07-15T14:58:13.238Z,25.05
2018-07-15T15:01:16.882Z,25.22
2018-07-15T15:04:20.594Z,25.10
2018-07-15T15:07:24.219Z,25.16
2018-07-15T15:10:27.923Z,25.13
2018-07-15T15:13:31.663Z,24.94
2018-07-15T15:16:35.512Z,25.16
2018-07-15T15:19:39.289Z,25.13
2018-07-15T15:22:42.928Z,25.08
2018-07-15T15:25:46.812Z,24.91
2018-07-15T15:28:50.433Z,24.95
2018-07-15T15:31:54.207Z,24.82
2018-07-15T15:34:57.988Z,24.99
2018-07-15T15:38:01.633Z,24.76
2018-07-15T15:41:12.035Z,24.85
2018-07-15T15:44:15.680Z,24.92
2018-07-15T15:47:19.312Z,24.99
2018-07-15T15:50:23.092Z,24.92
2018-07-15T15:53:26.883Z,24.90
2018-07-15T15:56:30.668Z,24.82
2018-07-15T15:59:34.723Z,24.98
2018-07-15T16:02:38.414Z,25.06
2018-07-15T16:05:42.039Z,25.09
2018-07-15T16:08:45.659Z,25.07
2018-07-15T16:11:49.775Z,25.07
2018-07-15T16:14:53.342Z,24.88
2018-07-15T16:17:57.143Z,24.97
2018-07-15T16:21:00.839Z,24.89
2018-07-15T16:24:04.545Z,24.90
2018-07-15T16:27:08.238Z,24.74
2018-07-15T16:30:11.959Z,24.77
2018-07-15T16:33:15.555Z,24.74
2018-07-15T16:36:19.383Z,24.65
2018-07-15T16:39:23.058Z,24.75
2018-07-15T16:42:26.690Z,24.84
2018-07-15T16:45:30.324Z,24.86
2018-07-15T16:48:34.034Z,24.89
2018-07-15T16:51:37.684Z,24.76
2018-07-15T16:54:41.520Z,24.92
2018-07-15T16:57:45.282Z,25.38
2018-07-15T17:00:48.892Z,25.86
2018-07-15T17:03:52.522Z,26.07
2018-07-15T17:06:56.202Z,26.82
2018-07-15T17:09:59.748Z,27.93
2018-07-15T17:13:03.460Z,29.61
2018-07-15T17:16:07.269Z,30.76
2018-07-15T17:19:11.024Z,30.92
2018-07-15T17:22:17.683Z,30.46
2018-07-15T17:25:21.575Z,30.79
2018-07-15T17:28:25.261Z,30.69
2018-07-15T17:31:28.948Z,30.89
2018-07-15T17:34:32.614Z,30.59
2018-07-15T17:37:36.324Z,30.85
2018-07-15T17:40:39.989Z,31.45
2018-07-15T17:43:44.016Z,30.54
2018-07-15T17:46:47.731Z,30.22
2018-07-15T17:49:51.393Z,30.39
2018-07-15T17:52:55.074Z,29.98
2018-07-15T17:55:58.719Z,30.44
2018-07-15T17:59:02.473Z,30.59
2018-07-15T18:02:06.175Z,30.01
2018-07-15T18:05:09.833Z,30.53
2018-07-15T18:08:13.540Z,29.86
2018-07-15T18:11:17.106Z,30.28
2018-07-15T18:14:20.796Z,29.96
2018-07-15T18:17:24.461Z,29.36
2018-07-15T18:20:28.183Z,28.19
2018-07-15T18:23:32.065Z,26.82
2018-07-15T18:26:35.964Z,25.81
2018-07-15T18:29:39.620Z,25.20
2018-07-15T18:32:43.585Z,24.60
2018-07-15T18:35:47.358Z,24.41
2018-07-15T18:38:51.093Z,24.42
2018-07-15T18:41:54.988Z,24.56
2018-07-15T18:44:59.259Z,24.26
2018-07-15T18:48:03.250Z,24.16
2018-07-15T18:51:07.305Z,23.96
2018-07-15T18:54:11.201Z,23.69
2018-07-15T18:57:14.899Z,23.47
2018-07-15T19:00:19.689Z,23.25
2018-07-15T19:03:23.295Z,22.93
2018-07-15T19:06:27.056Z,22.70
2018-07-15T19:09:30.685Z,22.70
2018-07-15T19:12:34.451Z,22.66
2018-07-15T19:15:38.074Z,22.41
2018-07-15T19:18:41.761Z,22.34
2018-07-15T19:21:45.477Z,22.21
2018-07-15T19:24:49.435Z,21.92
2018-07-15T19:27:53.286Z,21.69
2018-07-15T19:30:57.013Z,21.54
2018-07-15T19:37:25.980Z,21.25
2018-07-15T19:40:30.500Z,21.17
2018-07-15T19:43:35.034Z,21.07
2018-07-15T19:46:38.712Z,20.99
2018-07-15T19:49:42.396Z,20.87
2018-07-15T19:52:47.245Z,20.87
2018-07-15T19:55:50.864Z,20.83
2018-07-15T19:58:54.655Z,20.66
2018-07-15T20:01:58.334Z,20.45
2018-07-15T20:05:01.956Z,20.33
2018-07-15T20:08:05.831Z,20.32
2018-07-15T20:11:09.714Z,20.18
2018-07-15T20:14:13.566Z,20.14
2018-07-15T20:17:17.356Z,20.12
2018-07-15T20:20:21.184Z,20.02
2018-07-15T20:23:25.083Z,20.00
2018-07-15T20:26:28.705Z,19.91
2018-07-15T20:29:32.428Z,19.86
2018-07-15T20:32:36.143Z,19.86
2018-07-15T20:35:39.837Z,19.83
2018-07-15T20:38:43.475Z,19.79
2018-07-15T20:41:47.426Z,19.69
2018-07-15T20:44:51.100Z,19.60
2018-07-15T20:47:56.950Z,19.61
2018-07-15T20:51:00.686Z,19.57
2018-07-15T20:54:04.533Z,19.56
2018-07-15T20:57:08.387Z,19.47
2018-07-15T21:00:12.460Z,19.39
2018-07-15T21:03:16.046Z,19.29
2018-07-15T21:06:19.776Z,19.28
2018-07-15T21:09:23.449Z,19.21
2018-07-15T21:12:27.020Z,19.26
2018-07-15T21:15:30.721Z,19.27
2018-07-15T21:18:34.409Z,19.41
2018-07-15T21:21:38.032Z,19.24
2018-07-15T21:24:42.101Z,18.96
2018-07-15T21:27:45.772Z,18.71
2018-07-15T21:30:49.446Z,18.58
2018-07-15T21:33:53.156Z,18.48
2018-07-15T21:36:56.807Z,18.41
2018-07-15T21:40:00.580Z,18.37
2018-07-15T21:43:04.184Z,18.38
2018-07-15T21:46:07.947Z,18.36
2018-07-15T21:49:11.576Z,18.28
2018-07-15T21:52:15.218Z,18.26
2018-07-15T21:55:18.872Z,18.14
2018-07-15T21:58:22.507Z,18.10
2018-07-15T22:01:41.846Z,18.21
2018-07-15T22:04:45.615Z,18.20
2018-07-15T22:08:00.401Z,18.27
2018-07-15T22:11:04.068Z,18.27
2018-07-15T22:14:07.826Z,18.32
2018-07-15T22:17:11.625Z,18.42
2018-07-15T22:20:15.383Z,18.44
2018-07-15T22:23:19.229Z,18.52
2018-07-15T22:26:22.917Z,18.49
2018-07-15T22:29:26.565Z,18.38
2018-07-15T22:32:30.235Z,18.36
2018-07-15T22:35:33.983Z,18.27
2018-07-15T22:38:37.618Z,18.18
2018-07-15T22:41:41.220Z,18.15
2018-07-15T22:44:44.855Z,17.97
2018-07-15T22:47:48.541Z,17.85
2018-07-15T22:50:52.217Z,17.76
2018-07-15T22:53:55.936Z,17.69
2018-07-15T22:56:59.584Z,17.63
2018-07-15T23:00:03.307Z,17.55
2018-07-15T23:03:07.132Z,17.48
2018-07-15T23:06:17.959Z,17.47
2018-07-15T23:09:21.716Z,17.37
2018-07-15T23:12:25.393Z,17.28
2018-07-15T23:15:29.373Z,17.18
2018-07-15T23:18:33.006Z,17.23
2018-07-15T23:21:36.783Z,17.15
2018-07-15T23:24:40.479Z,17.08
2018-07-15T23:27:44.156Z,17.02
2018-07-15T23:30:47.808Z,16.98
2018-07-15T23:33:51.501Z,16.92
2018-07-15T23:36:55.107Z,16.84
2018-07-15T23:39:58.912Z,16.79
2018-07-15T23:43:02.942Z,16.74
2018-07-15T23:46:06.596Z,16.72
2018-07-15T23:49:10.234Z,16.64
2018-07-15T23:52:13.838Z,16.67
2018-07-15T23:55:17.573Z,16.63
2018-07-15T23:58:21.466Z,16.58
